sensor_id;sensor_type;location;lat;lon;timestamp;P1;durP1;ratioP1;P2;durP2;ratioP2
21941;SDS011;11135;54.192;15.670;2024-02-23T00:03:40;5.93;;;4.45;;
21941;SDS011;11135;54.192;15.670;2024-02-23T00:07:06;7.05;;;5.35;;
21941;SDS011;11135;54.192;15.670;2024-02-23T00:10:31;5.68;;;3.85;;
21941;SDS011;11135;54.192;15.670;2024-02-23T00:13:58;6.03;;;4.68;;
21941;SDS011;11135;54.192;15.670;2024-02-23T00:17:24;4.75;;;3.80;;
21941;SDS011;11135;54.192;15.670;2024-02-23T00:20:52;7.20;;;4.40;;
21941;SDS011;11135;54.192;15.670;2024-02-23T00:24:19;6.80;;;4.40;;
21941;SDS011;11135;54.192;15.670;2024-02-23T00:27:45;7.35;;;5.10;;
21941;SDS011;11135;54.192;15.670;2024-02-23T00:31:11;5.90;;;3.85;;
21941;SDS011;11135;54.192;15.670;2024-02-23T00:34:37;5.10;;;3.53;;
21941;SDS011;11135;54.192;15.670;2024-02-23T00:38:05;5.63;;;4.05;;
21941;SDS011;11135;54.192;15.670;2024-02-23T00:41:31;5.00;;;4.13;;
21941;SDS011;11135;54.192;15.670;2024-02-23T00:44:57;6.07;;;4.15;;
21941;SDS011;11135;54.192;15.670;2024-02-23T00:48:23;5.30;;;3.70;;
21941;SDS011;11135;54.192;15.670;2024-02-23T00:51:49;5.78;;;4.30;;
21941;SDS011;11135;54.192;15.670;2024-02-23T00:55:17;4.72;;;3.60;;
21941;SDS011;11135;54.192;15.670;2024-02-23T00:58:43;5.60;;;3.55;;
21941;SDS011;11135;54.192;15.670;2024-02-23T01:02:08;5.18;;;3.60;;
21941;SDS011;11135;54.192;15.670;2024-02-23T01:05:34;7.70;;;3.42;;
21941;SDS011;11135;54.192;15.670;2024-02-23T01:09:01;3.85;;;3.22;;
21941;SDS011;11135;54.192;15.670;2024-02-23T01:12:29;4.00;;;3.05;;
21941;SDS011;11135;54.192;15.670;2024-02-23T01:15:55;4.90;;;3.63;;
21941;SDS011;11135;54.192;15.670;2024-02-23T01:19:20;3.95;;;2.70;;
21941;SDS011;11135;54.192;15.670;2024-02-23T01:22:46;4.18;;;2.85;;
21941;SDS011;11135;54.192;15.670;2024-02-23T01:26:12;4.93;;;2.90;;
21941;SDS011;11135;54.192;15.670;2024-02-23T01:29:40;4.45;;;3.28;;
21941;SDS011;11135;54.192;15.670;2024-02-23T01:33:05;3.47;;;2.53;;
21941;SDS011;11135;54.192;15.670;2024-02-23T01:36:31;3.70;;;2.80;;
21941;SDS011;11135;54.192;15.670;2024-02-23T01:39:59;5.70;;;2.80;;
21941;SDS011;11135;54.192;15.670;2024-02-23T01:43:25;3.38;;;2.40;;
21941;SDS011;11135;54.192;15.670;2024-02-23T01:46:53;5.60;;;2.38;;
21941;SDS011;11135;54.192;15.670;2024-02-23T01:50:19;4.95;;;2.60;;
21941;SDS011;11135;54.192;15.670;2024-02-23T01:53:45;5.50;;;2.40;;
21941;SDS011;11135;54.192;15.670;2024-02-23T01:57:10;3.35;;;2.10;;
21941;SDS011;11135;54.192;15.670;2024-02-23T02:00:56;3.83;;;2.40;;
21941;SDS011;11135;54.192;15.670;2024-02-23T02:04:25;2.58;;;1.98;;
21941;SDS011;11135;54.192;15.670;2024-02-23T02:07:51;3.83;;;2.17;;
21941;SDS011;11135;54.192;15.670;2024-02-23T02:11:22;2.80;;;2.10;;
21941;SDS011;11135;54.192;15.670;2024-02-23T02:14:47;2.92;;;1.60;;
21941;SDS011;11135;54.192;15.670;2024-02-23T02:18:13;2.95;;;1.70;;
21941;SDS011;11135;54.192;15.670;2024-02-23T02:21:42;2.28;;;1.60;;
21941;SDS011;11135;54.192;15.670;2024-02-23T02:25:08;3.30;;;2.00;;
21941;SDS011;11135;54.192;15.670;2024-02-23T02:28:33;2.67;;;1.70;;
21941;SDS011;11135;54.192;15.670;2024-02-23T02:32:00;1.80;;;1.30;;
21941;SDS011;11135;54.192;15.670;2024-02-23T02:35:26;1.50;;;1.08;;
21941;SDS011;11135;54.192;15.670;2024-02-23T02:38:54;2.17;;;1.45;;
21941;SDS011;11135;54.192;15.670;2024-02-23T02:42:20;3.05;;;1.50;;
21941;SDS011;11135;54.192;15.670;2024-02-23T02:45:45;2.55;;;1.63;;
21941;SDS011;11135;54.192;15.670;2024-02-23T02:49:11;1.67;;;1.27;;
21941;SDS011;11135;54.192;15.670;2024-02-23T02:52:36;4.15;;;1.48;;
21941;SDS011;11135;54.192;15.670;2024-02-23T02:56:07;2.67;;;1.90;;
21941;SDS011;11135;54.192;15.670;2024-02-23T02:59:33;1.77;;;1.40;;
21941;SDS011;11135;54.192;15.670;2024-02-23T03:02:59;2.58;;;1.60;;
21941;SDS011;11135;54.192;15.670;2024-02-23T03:06:25;2.63;;;1.33;;
21941;SDS011;11135;54.192;15.670;2024-02-23T03:09:50;2.17;;;1.55;;
21941;SDS011;11135;54.192;15.670;2024-02-23T03:13:19;1.83;;;1.20;;
21941;SDS011;11135;54.192;15.670;2024-02-23T03:16:44;2.33;;;1.30;;
21941;SDS011;11135;54.192;15.670;2024-02-23T03:20:12;1.65;;;1.25;;
21941;SDS011;11135;54.192;15.670;2024-02-23T03:23:38;2.78;;;1.58;;
21941;SDS011;11135;54.192;15.670;2024-02-23T03:27:03;1.85;;;1.17;;
21941;SDS011;11135;54.192;15.670;2024-02-23T03:30:32;1.42;;;1.00;;
21941;SDS011;11135;54.192;15.670;2024-02-23T03:33:59;3.75;;;1.20;;
21941;SDS011;11135;54.192;15.670;2024-02-23T03:37:24;1.60;;;1.33;;
21941;SDS011;11135;54.192;15.670;2024-02-23T03:40:50;1.27;;;0.90;;
21941;SDS011;11135;54.192;15.670;2024-02-23T03:44:16;1.40;;;1.08;;
21941;SDS011;11135;54.192;15.670;2024-02-23T03:47:45;1.38;;;1.05;;
21941;SDS011;11135;54.192;15.670;2024-02-23T03:51:11;1.92;;;1.40;;
21941;SDS011;11135;54.192;15.670;2024-02-23T03:54:36;2.22;;;1.13;;
21941;SDS011;11135;54.192;15.670;2024-02-23T03:58:02;2.25;;;1.10;;
21941;SDS011;11135;54.192;15.670;2024-02-23T04:01:28;1.65;;;1.20;;
21941;SDS011;11135;54.192;15.670;2024-02-23T04:04:56;2.13;;;1.30;;
21941;SDS011;11135;54.192;15.670;2024-02-23T04:08:22;2.60;;;1.10;;
21941;SDS011;11135;54.192;15.670;2024-02-23T04:11:48;2.28;;;1.30;;
21941;SDS011;11135;54.192;15.670;2024-02-23T04:15:14;1.52;;;1.10;;
21941;SDS011;11135;54.192;15.670;2024-02-23T04:18:40;2.78;;;1.30;;
21941;SDS011;11135;54.192;15.670;2024-02-23T04:22:08;2.83;;;1.00;;
21941;SDS011;11135;54.192;15.670;2024-02-23T04:25:35;1.20;;;1.00;;
21941;SDS011;11135;54.192;15.670;2024-02-23T04:29:00;1.33;;;1.00;;
21941;SDS011;11135;54.192;15.670;2024-02-23T04:32:26;3.10;;;1.23;;
21941;SDS011;11135;54.192;15.670;2024-02-23T04:35:52;2.33;;;1.50;;
21941;SDS011;11135;54.192;15.670;2024-02-23T04:39:21;1.50;;;1.10;;
21941;SDS011;11135;54.192;15.670;2024-02-23T04:42:46;0.88;;;0.60;;
21941;SDS011;11135;54.192;15.670;2024-02-23T04:46:12;1.83;;;1.00;;
21941;SDS011;11135;54.192;15.670;2024-02-23T04:49:38;1.45;;;0.80;;
21941;SDS011;11135;54.192;15.670;2024-02-23T04:53:04;2.20;;;0.80;;
21941;SDS011;11135;54.192;15.670;2024-02-23T04:56:33;0.93;;;0.80;;
21941;SDS011;11135;54.192;15.670;2024-02-23T05:00:00;2.40;;;0.70;;
21941;SDS011;11135;54.192;15.670;2024-02-23T05:03:26;1.13;;;0.70;;
21941;SDS011;11135;54.192;15.670;2024-02-23T05:06:52;2.17;;;0.70;;
21941;SDS011;11135;54.192;15.670;2024-02-23T05:10:17;1.35;;;0.75;;
21941;SDS011;11135;54.192;15.670;2024-02-23T05:13:47;1.15;;;0.70;;
21941;SDS011;11135;54.192;15.670;2024-02-23T05:17:13;2.40;;;1.45;;
21941;SDS011;11135;54.192;15.670;2024-02-23T05:20:39;0.90;;;0.50;;
21941;SDS011;11135;54.192;15.670;2024-02-23T05:24:05;1.75;;;0.40;;
21941;SDS011;11135;54.192;15.670;2024-02-23T05:27:31;4.80;;;1.30;;
21941;SDS011;11135;54.192;15.670;2024-02-23T05:31:01;2.00;;;0.88;;
21941;SDS011;11135;54.192;15.670;2024-02-23T05:34:27;1.98;;;1.17;;
21941;SDS011;11135;54.192;15.670;2024-02-23T05:37:53;2.97;;;0.80;;
21941;SDS011;11135;54.192;15.670;2024-02-23T05:41:19;5.75;;;0.70;;
21941;SDS011;11135;54.192;15.670;2024-02-23T05:44:44;1.38;;;0.70;;
21941;SDS011;11135;54.192;15.670;2024-02-23T05:48:14;2.20;;;0.60;;
21941;SDS011;11135;54.192;15.670;2024-02-23T05:51:41;1.95;;;0.60;;
21941;SDS011;11135;54.192;15.670;2024-02-23T05:55:07;0.50;;;0.50;;
21941;SDS011;11135;54.192;15.670;2024-02-23T05:58:35;1.60;;;0.70;;
21941;SDS011;11135;54.192;15.670;2024-02-23T06:02:03;2.92;;;0.82;;
21941;SDS011;11135;54.192;15.670;2024-02-23T06:05:32;2.47;;;0.80;;
21941;SDS011;11135;54.192;15.670;2024-02-23T06:08:58;2.03;;;0.60;;
21941;SDS011;11135;54.192;15.670;2024-02-23T06:12:25;2.20;;;0.60;;
21941;SDS011;11135;54.192;15.670;2024-02-23T06:15:50;2.00;;;0.68;;
21941;SDS011;11135;54.192;15.670;2024-02-23T06:19:16;2.25;;;0.50;;
21941;SDS011;11135;54.192;15.670;2024-02-23T06:22:44;1.20;;;0.60;;
21941;SDS011;11135;54.192;15.670;2024-02-23T06:26:11;3.67;;;0.75;;
21941;SDS011;11135;54.192;15.670;2024-02-23T06:29:37;1.27;;;0.70;;
21941;SDS011;11135;54.192;15.670;2024-02-23T06:33:03;1.08;;;0.50;;
21941;SDS011;11135;54.192;15.670;2024-02-23T06:36:29;1.65;;;0.80;;
21941;SDS011;11135;54.192;15.670;2024-02-23T06:40:00;1.55;;;0.57;;
21941;SDS011;11135;54.192;15.670;2024-02-23T06:43:27;1.92;;;0.80;;
21941;SDS011;11135;54.192;15.670;2024-02-23T06:46:52;5.00;;;0.70;;
21941;SDS011;11135;54.192;15.670;2024-02-23T06:50:18;2.70;;;0.60;;
21941;SDS011;11135;54.192;15.670;2024-02-23T06:53:44;1.67;;;0.57;;
21941;SDS011;11135;54.192;15.670;2024-02-23T06:57:12;4.40;;;1.02;;
21941;SDS011;11135;54.192;15.670;2024-02-23T07:00:39;2.00;;;0.80;;
21941;SDS011;11135;54.192;15.670;2024-02-23T07:04:05;3.10;;;0.90;;
21941;SDS011;11135;54.192;15.670;2024-02-23T07:07:32;1.65;;;0.95;;
21941;SDS011;11135;54.192;15.670;2024-02-23T07:10:58;0.77;;;0.70;;
21941;SDS011;11135;54.192;15.670;2024-02-23T07:14:27;4.85;;;0.80;;
21941;SDS011;11135;54.192;15.670;2024-02-23T07:17:52;2.58;;;0.82;;
21941;SDS011;11135;54.192;15.670;2024-02-23T07:21:18;1.05;;;0.90;;
21941;SDS011;11135;54.192;15.670;2024-02-23T07:24:44;1.23;;;0.90;;
21941;SDS011;11135;54.192;15.670;2024-02-23T07:28:09;3.35;;;1.10;;
21941;SDS011;11135;54.192;15.670;2024-02-23T07:31:38;2.10;;;0.90;;
21941;SDS011;11135;54.192;15.670;2024-02-23T07:35:04;1.58;;;1.05;;
21941;SDS011;11135;54.192;15.670;2024-02-23T07:38:30;1.63;;;0.70;;
21941;SDS011;11135;54.192;15.670;2024-02-23T07:41:58;1.23;;;0.70;;
21941;SDS011;11135;54.192;15.670;2024-02-23T07:45:24;1.42;;;0.60;;
21941;SDS011;11135;54.192;15.670;2024-02-23T07:48:55;0.55;;;0.40;;
21941;SDS011;11135;54.192;15.670;2024-02-23T07:52:21;2.28;;;0.73;;
21941;SDS011;11135;54.192;15.670;2024-02-23T07:55:47;1.23;;;0.50;;
21941;SDS011;11135;54.192;15.670;2024-02-23T07:59:13;1.55;;;0.55;;
21941;SDS011;11135;54.192;15.670;2024-02-23T08:02:41;0.45;;;0.40;;
21941;SDS011;11135;54.192;15.670;2024-02-23T08:06:10;1.75;;;0.77;;
21941;SDS011;11135;54.192;15.670;2024-02-23T08:09:38;0.82;;;0.50;;
21941;SDS011;11135;54.192;15.670;2024-02-23T08:13:04;0.65;;;0.47;;
21941;SDS011;11135;54.192;15.670;2024-02-23T08:16:32;1.02;;;0.52;;
21941;SDS011;11135;54.192;15.670;2024-02-23T08:19:58;0.75;;;0.50;;
21941;SDS011;11135;54.192;15.670;2024-02-23T08:23:27;0.65;;;0.40;;
21941;SDS011;11135;54.192;15.670;2024-02-23T08:26:53;0.70;;;0.50;;
21941;SDS011;11135;54.192;15.670;2024-02-23T08:30:19;1.83;;;0.50;;
21941;SDS011;11135;54.192;15.670;2024-02-23T08:33:47;0.80;;;0.40;;
21941;SDS011;11135;54.192;15.670;2024-02-23T08:37:13;0.80;;;0.40;;
21941;SDS011;11135;54.192;15.670;2024-02-23T08:40:41;0.60;;;0.35;;
21941;SDS011;11135;54.192;15.670;2024-02-23T08:44:09;0.88;;;0.38;;
21941;SDS011;11135;54.192;15.670;2024-02-23T08:47:37;0.57;;;0.50;;
21941;SDS011;11135;54.192;15.670;2024-02-23T08:51:03;0.50;;;0.50;;
21941;SDS011;11135;54.192;15.670;2024-02-23T08:54:29;0.45;;;0.40;;
21941;SDS011;11135;54.192;15.670;2024-02-23T08:57:57;0.40;;;0.40;;
21941;SDS011;11135;54.192;15.670;2024-02-23T09:01:23;0.73;;;0.40;;
21941;SDS011;11135;54.192;15.670;2024-02-23T09:04:49;1.77;;;0.50;;
21941;SDS011;11135;54.192;15.670;2024-02-23T09:08:15;0.47;;;0.40;;
21941;SDS011;11135;54.192;15.670;2024-02-23T09:11:40;0.25;;;0.25;;
21941;SDS011;11135;54.192;15.670;2024-02-23T09:15:09;0.40;;;0.40;;
21941;SDS011;11135;54.192;15.670;2024-02-23T09:18:35;0.98;;;0.40;;
21941;SDS011;11135;54.192;15.670;2024-02-23T09:22:01;0.43;;;0.40;;
21941;SDS011;11135;54.192;15.670;2024-02-23T09:25:27;0.40;;;0.40;;
21941;SDS011;11135;54.192;15.670;2024-02-23T09:28:52;0.90;;;0.40;;
21941;SDS011;11135;54.192;15.670;2024-02-23T09:32:22;1.52;;;0.52;;
21941;SDS011;11135;54.192;15.670;2024-02-23T09:35:48;0.80;;;0.40;;
21941;SDS011;11135;54.192;15.670;2024-02-23T09:39:14;1.23;;;0.70;;
21941;SDS011;11135;54.192;15.670;2024-02-23T09:42:41;0.40;;;0.40;;
21941;SDS011;11135;54.192;15.670;2024-02-23T09:46:07;0.57;;;0.38;;
21941;SDS011;11135;54.192;15.670;2024-02-23T09:49:36;0.60;;;0.45;;
21941;SDS011;11135;54.192;15.670;2024-02-23T09:53:03;0.30;;;0.30;;
21941;SDS011;11135;54.192;15.670;2024-02-23T09:56:31;0.40;;;0.40;;
21941;SDS011;11135;54.192;15.670;2024-02-23T09:59:58;0.55;;;0.50;;
21941;SDS011;11135;54.192;15.670;2024-02-23T10:03:29;0.57;;;0.50;;
21941;SDS011;11135;54.192;15.670;2024-02-23T10:06:58;0.90;;;0.80;;
21941;SDS011;11135;54.192;15.670;2024-02-23T10:10:24;0.70;;;0.50;;
21941;SDS011;11135;54.192;15.670;2024-02-23T10:13:51;0.98;;;0.50;;
21941;SDS011;11135;54.192;15.670;2024-02-23T10:17:17;1.65;;;0.60;;
21941;SDS011;11135;54.192;15.670;2024-02-23T10:20:43;2.42;;;0.65;;
21941;SDS011;11135;54.192;15.670;2024-02-23T10:24:11;1.92;;;0.40;;
21941;SDS011;11135;54.192;15.670;2024-02-23T10:27:37;1.27;;;0.50;;
21941;SDS011;11135;54.192;15.670;2024-02-23T10:31:04;2.95;;;0.80;;
21941;SDS011;11135;54.192;15.670;2024-02-23T10:34:35;0.60;;;0.45;;
21941;SDS011;11135;54.192;15.670;2024-02-23T10:38:07;0.90;;;0.50;;
21941;SDS011;11135;54.192;15.670;2024-02-23T10:41:37;1.25;;;0.60;;
21941;SDS011;11135;54.192;15.670;2024-02-23T10:45:05;0.50;;;0.50;;
21941;SDS011;11135;54.192;15.670;2024-02-23T10:48:31;0.73;;;0.50;;
21941;SDS011;11135;54.192;15.670;2024-02-23T10:51:57;0.73;;;0.50;;
21941;SDS011;11135;54.192;15.670;2024-02-23T10:55:33;2.13;;;0.57;;
21941;SDS011;11135;54.192;15.670;2024-02-23T10:59:04;1.40;;;0.55;;
21941;SDS011;11135;54.192;15.670;2024-02-23T11:02:30;1.85;;;0.68;;
21941;SDS011;11135;54.192;15.670;2024-02-23T11:05:58;0.75;;;0.50;;
21941;SDS011;11135;54.192;15.670;2024-02-23T11:09:24;2.10;;;0.80;;
21941;SDS011;11135;54.192;15.670;2024-02-23T11:12:56;0.50;;;0.40;;
21941;SDS011;11135;54.192;15.670;2024-02-23T11:16:26;0.55;;;0.52;;
21941;SDS011;11135;54.192;15.670;2024-02-23T11:19:52;0.85;;;0.80;;
21941;SDS011;11135;54.192;15.670;2024-02-23T11:23:20;1.42;;;0.60;;
21941;SDS011;11135;54.192;15.670;2024-02-23T11:26:48;4.57;;;0.70;;
21941;SDS011;11135;54.192;15.670;2024-02-23T11:30:14;0.80;;;0.60;;
21941;SDS011;11135;54.192;15.670;2024-02-23T11:33:50;2.95;;;0.98;;
21941;SDS011;11135;54.192;15.670;2024-02-23T11:37:16;0.60;;;0.50;;
21941;SDS011;11135;54.192;15.670;2024-02-23T11:40:44;0.68;;;0.60;;
21941;SDS011;11135;54.192;15.670;2024-02-23T11:44:10;1.05;;;0.65;;
21941;SDS011;11135;54.192;15.670;2024-02-23T11:47:36;0.95;;;0.50;;
21941;SDS011;11135;54.192;15.670;2024-02-23T11:51:04;2.33;;;0.75;;
21941;SDS011;11135;54.192;15.670;2024-02-23T11:54:30;0.98;;;0.57;;
21941;SDS011;11135;54.192;15.670;2024-02-23T11:57:56;2.17;;;0.88;;
21941;SDS011;11135;54.192;15.670;2024-02-23T12:01:32;1.45;;;1.10;;
21941;SDS011;11135;54.192;15.670;2024-02-23T12:04:58;2.75;;;0.80;;
21941;SDS011;11135;54.192;15.670;2024-02-23T12:08:27;1.88;;;0.60;;
21941;SDS011;11135;54.192;15.670;2024-02-23T12:11:54;2.03;;;0.70;;
21941;SDS011;11135;54.192;15.670;2024-02-23T12:15:20;2.35;;;0.75;;
21941;SDS011;11135;54.192;15.670;2024-02-23T12:18:45;1.38;;;0.65;;
21941;SDS011;11135;54.192;15.670;2024-02-23T12:22:18;4.07;;;1.00;;
21941;SDS011;11135;54.192;15.670;2024-02-23T12:25:54;1.25;;;0.50;;
21941;SDS011;11135;54.192;15.670;2024-02-23T12:29:22;1.65;;;0.75;;
21941;SDS011;11135;54.192;15.670;2024-02-23T12:32:48;1.85;;;0.98;;
21941;SDS011;11135;54.192;15.670;2024-02-23T12:36:13;3.10;;;1.05;;
21941;SDS011;11135;54.192;15.670;2024-02-23T12:39:40;1.08;;;0.80;;
21941;SDS011;11135;54.192;15.670;2024-02-23T12:43:08;5.22;;;1.02;;
21941;SDS011;11135;54.192;15.670;2024-02-23T12:46:34;3.42;;;1.10;;
21941;SDS011;11135;54.192;15.670;2024-02-23T12:50:00;3.30;;;1.25;;
21941;SDS011;11135;54.192;15.670;2024-02-23T12:53:33;1.40;;;1.10;;
21941;SDS011;11135;54.192;15.670;2024-02-23T12:57:00;3.80;;;1.40;;
21941;SDS011;11135;54.192;15.670;2024-02-23T13:00:29;4.03;;;1.30;;
21941;SDS011;11135;54.192;15.670;2024-02-23T13:03:54;3.92;;;1.40;;
21941;SDS011;11135;54.192;15.670;2024-02-23T13:07:20;1.60;;;1.05;;
21941;SDS011;11135;54.192;15.670;2024-02-23T13:10:47;1.48;;;1.02;;
21941;SDS011;11135;54.192;15.670;2024-02-23T13:14:13;7.95;;;1.63;;
21941;SDS011;11135;54.192;15.670;2024-02-23T13:17:42;3.45;;;1.40;;
21941;SDS011;11135;54.192;15.670;2024-02-23T13:21:08;2.00;;;0.93;;
21941;SDS011;11135;54.192;15.670;2024-02-23T13:24:34;3.53;;;0.90;;
21941;SDS011;11135;54.192;15.670;2024-02-23T13:28:02;1.67;;;0.70;;
21941;SDS011;11135;54.192;15.670;2024-02-23T13:31:28;0.98;;;0.50;;
21941;SDS011;11135;54.192;15.670;2024-02-23T13:34:56;2.03;;;0.80;;
21941;SDS011;11135;54.192;15.670;2024-02-23T13:38:27;1.85;;;0.50;;
21941;SDS011;11135;54.192;15.670;2024-02-23T13:41:53;0.82;;;0.60;;
21941;SDS011;11135;54.192;15.670;2024-02-23T13:45:18;0.60;;;0.60;;
21941;SDS011;11135;54.192;15.670;2024-02-23T13:48:46;2.90;;;0.82;;
21941;SDS011;11135;54.192;15.670;2024-02-23T13:52:18;2.08;;;0.80;;
21941;SDS011;11135;54.192;15.670;2024-02-23T13:55:43;2.53;;;0.60;;
21941;SDS011;11135;54.192;15.670;2024-02-23T13:59:11;0.52;;;0.52;;
21941;SDS011;11135;54.192;15.670;2024-02-23T14:02:37;2.08;;;0.50;;
21941;SDS011;11135;54.192;15.670;2024-02-23T14:06:04;2.28;;;0.70;;
21941;SDS011;11135;54.192;15.670;2024-02-23T14:09:37;1.52;;;0.65;;
21941;SDS011;11135;54.192;15.670;2024-02-23T14:13:03;0.93;;;0.68;;
21941;SDS011;11135;54.192;15.670;2024-02-23T14:16:29;0.70;;;0.60;;
21941;SDS011;11135;54.192;15.670;2024-02-23T14:19:55;5.47;;;0.85;;
21941;SDS011;11135;54.192;15.670;2024-02-23T14:23:24;1.90;;;0.63;;
21941;SDS011;11135;54.192;15.670;2024-02-23T14:26:52;1.80;;;0.80;;
21941;SDS011;11135;54.192;15.670;2024-02-23T14:30:18;0.52;;;0.50;;
21941;SDS011;11135;54.192;15.670;2024-02-23T14:33:44;2.05;;;0.65;;
21941;SDS011;11135;54.192;15.670;2024-02-23T14:37:13;2.45;;;0.57;;
21941;SDS011;11135;54.192;15.670;2024-02-23T14:40:39;2.67;;;0.68;;
21941;SDS011;11135;54.192;15.670;2024-02-23T14:44:10;1.45;;;0.50;;
21941;SDS011;11135;54.192;15.670;2024-02-23T14:47:36;2.75;;;0.68;;
21941;SDS011;11135;54.192;15.670;2024-02-23T14:51:08;0.63;;;0.63;;
21941;SDS011;11135;54.192;15.670;2024-02-23T14:54:33;0.50;;;0.50;;
21941;SDS011;11135;54.192;15.670;2024-02-23T14:57:59;1.95;;;0.60;;
21941;SDS011;11135;54.192;15.670;2024-02-23T15:01:28;1.63;;;0.70;;
21941;SDS011;11135;54.192;15.670;2024-02-23T15:04:55;1.08;;;0.60;;
21941;SDS011;11135;54.192;15.670;2024-02-23T15:08:21;1.95;;;0.60;;
21941;SDS011;11135;54.192;15.670;2024-02-23T15:11:47;0.63;;;0.50;;
21941;SDS011;11135;54.192;15.670;2024-02-23T15:15:14;2.85;;;0.95;;
21941;SDS011;11135;54.192;15.670;2024-02-23T15:18:42;1.13;;;0.60;;
21941;SDS011;11135;54.192;15.670;2024-02-23T15:22:09;1.35;;;0.70;;
21941;SDS011;11135;54.192;15.670;2024-02-23T15:25:38;1.65;;;0.80;;
21941;SDS011;11135;54.192;15.670;2024-02-23T15:29:08;1.88;;;0.77;;
21941;SDS011;11135;54.192;15.670;2024-02-23T15:32:35;1.00;;;0.80;;
21941;SDS011;11135;54.192;15.670;2024-02-23T15:36:06;1.55;;;0.90;;
21941;SDS011;11135;54.192;15.670;2024-02-23T15:39:34;1.20;;;0.60;;
21941;SDS011;11135;54.192;15.670;2024-02-23T15:43:01;1.25;;;0.63;;
21941;SDS011;11135;54.192;15.670;2024-02-23T15:46:27;3.10;;;0.90;;
21941;SDS011;11135;54.192;15.670;2024-02-23T15:49:54;1.98;;;0.98;;
21941;SDS011;11135;54.192;15.670;2024-02-23T15:53:48;3.17;;;0.90;;
21941;SDS011;11135;54.192;15.670;2024-02-23T15:57:14;1.92;;;1.10;;
21941;SDS011;11135;54.192;15.670;2024-02-23T16:00:40;1.67;;;0.80;;
21941;SDS011;11135;54.192;15.670;2024-02-23T16:04:06;2.22;;;1.20;;
21941;SDS011;11135;54.192;15.670;2024-02-23T16:07:32;1.35;;;0.82;;
21941;SDS011;11135;54.192;15.670;2024-02-23T16:11:01;2.95;;;0.65;;
21941;SDS011;11135;54.192;15.670;2024-02-23T16:14:27;1.92;;;0.82;;
21941;SDS011;11135;54.192;15.670;2024-02-23T16:17:54;2.22;;;0.90;;
21941;SDS011;11135;54.192;15.670;2024-02-23T16:21:21;1.75;;;1.10;;
21941;SDS011;11135;54.192;15.670;2024-02-23T16:24:47;2.47;;;0.82;;
21941;SDS011;11135;54.192;15.670;2024-02-23T16:28:16;2.72;;;1.30;;
21941;SDS011;11135;54.192;15.670;2024-02-23T16:31:42;1.98;;;0.90;;
21941;SDS011;11135;54.192;15.670;2024-02-23T16:35:08;3.38;;;1.75;;
21941;SDS011;11135;54.192;15.670;2024-02-23T16:38:40;3.60;;;1.60;;
21941;SDS011;11135;54.192;15.670;2024-02-23T16:42:06;4.07;;;1.30;;
21941;SDS011;11135;54.192;15.670;2024-02-23T16:45:34;2.25;;;1.25;;
21941;SDS011;11135;54.192;15.670;2024-02-23T16:49:00;2.78;;;1.45;;
21941;SDS011;11135;54.192;15.670;2024-02-23T16:52:28;3.55;;;1.40;;
21941;SDS011;11135;54.192;15.670;2024-02-23T16:55:54;3.28;;;1.20;;
21941;SDS011;11135;54.192;15.670;2024-02-23T16:59:23;2.13;;;1.00;;
21941;SDS011;11135;54.192;15.670;2024-02-23T17:02:52;2.55;;;1.10;;
21941;SDS011;11135;54.192;15.670;2024-02-23T17:06:17;1.73;;;0.90;;
21941;SDS011;11135;54.192;15.670;2024-02-23T17:09:43;2.47;;;1.10;;
21941;SDS011;11135;54.192;15.670;2024-02-23T17:13:10;2.63;;;1.10;;
21941;SDS011;11135;54.192;15.670;2024-02-23T17:16:36;2.08;;;0.98;;
21941;SDS011;11135;54.192;15.670;2024-02-23T17:20:05;1.83;;;1.00;;
21941;SDS011;11135;54.192;15.670;2024-02-23T17:23:32;1.80;;;1.13;;
21941;SDS011;11135;54.192;15.670;2024-02-23T17:26:57;2.28;;;1.10;;
21941;SDS011;11135;54.192;15.670;2024-02-23T17:30:23;2.97;;;1.10;;
21941;SDS011;11135;54.192;15.670;2024-02-23T17:33:49;2.35;;;1.10;;
21941;SDS011;11135;54.192;15.670;2024-02-23T17:37:18;4.13;;;1.10;;
21941;SDS011;11135;54.192;15.670;2024-02-23T17:40:44;2.28;;;1.00;;
21941;SDS011;11135;54.192;15.670;2024-02-23T17:44:13;1.42;;;0.80;;
21941;SDS011;11135;54.192;15.670;2024-02-23T17:47:40;3.13;;;1.25;;
21941;SDS011;11135;54.192;15.670;2024-02-23T17:51:06;3.13;;;1.38;;
21941;SDS011;11135;54.192;15.670;2024-02-23T17:54:34;3.65;;;1.70;;
21941;SDS011;11135;54.192;15.670;2024-02-23T17:58:01;4.20;;;1.48;;
21941;SDS011;11135;54.192;15.670;2024-02-23T18:01:41;3.65;;;1.63;;
21941;SDS011;11135;54.192;15.670;2024-02-23T18:05:07;3.65;;;1.80;;
21941;SDS011;11135;54.192;15.670;2024-02-23T18:08:33;5.40;;;1.90;;
21941;SDS011;11135;54.192;15.670;2024-02-23T18:12:02;4.65;;;1.90;;
21941;SDS011;11135;54.192;15.670;2024-02-23T18:15:28;4.57;;;2.00;;
21941;SDS011;11135;54.192;15.670;2024-02-23T18:18:55;4.93;;;2.20;;
21941;SDS011;11135;54.192;15.670;2024-02-23T18:22:22;4.43;;;1.98;;
21941;SDS011;11135;54.192;15.670;2024-02-23T18:25:48;4.90;;;2.58;;
21941;SDS011;11135;54.192;15.670;2024-02-23T18:29:16;5.18;;;2.30;;
21941;SDS011;11135;54.192;15.670;2024-02-23T18:32:43;5.57;;;2.25;;
21941;SDS011;11135;54.192;15.670;2024-02-23T18:36:08;6.07;;;2.50;;
21941;SDS011;11135;54.192;15.670;2024-02-23T18:39:37;3.70;;;2.15;;
21941;SDS011;11135;54.192;15.670;2024-02-23T18:43:03;4.68;;;1.83;;
21941;SDS011;11135;54.192;15.670;2024-02-23T18:46:32;4.75;;;1.95;;
21941;SDS011;11135;54.192;15.670;2024-02-23T18:50:00;3.50;;;1.40;;
21941;SDS011;11135;54.192;15.670;2024-02-23T18:53:26;3.42;;;1.60;;
21941;SDS011;11135;54.192;15.670;2024-02-23T18:56:53;2.80;;;1.38;;
21941;SDS011;11135;54.192;15.670;2024-02-23T19:00:19;5.65;;;1.83;;
21941;SDS011;11135;54.192;15.670;2024-02-23T19:03:47;3.97;;;1.60;;
21941;SDS011;11135;54.192;15.670;2024-02-23T19:07:13;5.60;;;1.98;;
21941;SDS011;11135;54.192;15.670;2024-02-23T19:10:40;4.88;;;1.98;;
21941;SDS011;11135;54.192;15.670;2024-02-23T19:14:07;2.72;;;1.60;;
21941;SDS011;11135;54.192;15.670;2024-02-23T19:17:33;3.75;;;1.52;;
21941;SDS011;11135;54.192;15.670;2024-02-23T19:21:03;6.97;;;2.00;;
21941;SDS011;11135;54.192;15.670;2024-02-23T19:24:29;3.53;;;1.85;;
21941;SDS011;11135;54.192;15.670;2024-02-23T19:27:55;5.38;;;2.10;;
21941;SDS011;11135;54.192;15.670;2024-02-23T19:31:22;3.33;;;1.75;;
21941;SDS011;11135;54.192;15.670;2024-02-23T19:34:49;3.83;;;1.75;;
21941;SDS011;11135;54.192;15.670;2024-02-23T19:38:17;5.25;;;2.03;;
21941;SDS011;11135;54.192;15.670;2024-02-23T19:41:43;5.25;;;1.90;;
21941;SDS011;11135;54.192;15.670;2024-02-23T19:45:09;4.97;;;1.90;;
21941;SDS011;11135;54.192;15.670;2024-02-23T19:48:35;4.72;;;1.77;;
21941;SDS011;11135;54.192;15.670;2024-02-23T19:52:01;3.90;;;1.85;;
21941;SDS011;11135;54.192;15.670;2024-02-23T19:55:30;5.35;;;2.10;;
21941;SDS011;11135;54.192;15.670;2024-02-23T19:58:56;4.68;;;1.73;;
21941;SDS011;11135;54.192;15.670;2024-02-23T20:02:22;3.80;;;1.70;;
21941;SDS011;11135;54.192;15.670;2024-02-23T20:05:48;4.70;;;2.00;;
21941;SDS011;11135;54.192;15.670;2024-02-23T20:09:14;3.35;;;1.88;;
21941;SDS011;11135;54.192;15.670;2024-02-23T20:12:42;3.58;;;1.83;;
21941;SDS011;11135;54.192;15.670;2024-02-23T20:16:08;5.00;;;1.75;;
21941;SDS011;11135;54.192;15.670;2024-02-23T20:19:34;4.55;;;1.92;;
21941;SDS011;11135;54.192;15.670;2024-02-23T20:23:00;6.63;;;2.08;;
21941;SDS011;11135;54.192;15.670;2024-02-23T20:26:26;3.05;;;1.63;;
21941;SDS011;11135;54.192;15.670;2024-02-23T20:29:54;4.65;;;2.15;;